Time;durP1;ratioP1;P1;durP2;ratioP2;P2;SDS_P1;SDS_P2;PMS_P1;PMS_P2;Temp;Humidity;BMP_temperature;BMP_pressure;BME280_temperature;BME280_humidity;BME280_pressure;Samples;Min_cycle;Max_cycle;Signal;HPM_P1;HPM_P2
2023/08/20 04:31:51;;;;;;;0.00;0.00;;;16.80;78.70;;;;;;5171062;23;20059;-78
2023/08/20 04:34:17;;;;;;;0.10;0.10;;;16.80;78.70;;;;;;4899293;29;20591;-77
2023/08/20 04:36:42;;;;;;;0.00;0.00;;;16.80;78.50;;;;;;4905133;29;20059;-76
2023/08/20 04:39:08;;;;;;;0.10;0.10;;;16.80;78.40;;;;;;4905102;29;20028;-76
2023/08/20 04:41:34;;;;;;;0.15;0.05;;;16.80;78.50;;;;;;4905228;29;20112;-78
2023/08/20 04:43:59;;;;;;;0.05;0.05;;;16.80;78.50;;;;;;4905062;29;20113;-78
2023/08/20 04:46:25;;;;;;;0.10;0.10;;;16.90;78.30;;;;;;4905133;29;20521;-78
2023/08/20 04:48:50;;;;;;;0.00;0.00;;;16.90;78.10;;;;;;4904975;29;20029;-78
2023/08/20 04:51:16;;;;;;;0.00;0.00;;;17.00;78.00;;;;;;4905002;29;20040;-78
2023/08/20 04:53:42;;;;;;;0.10;0.10;;;17.00;77.80;;;;;;4905003;29;20428;-79
2023/08/20 04:56:07;;;;;;;0.10;0.10;;;17.10;77.90;;;;;;4905109;29;20035;-79
2023/08/20 04:58:33;;;;;;;0.00;0.00;;;17.10;77.70;;;;;;4887976;29;20025;-77
2023/08/20 05:00:58;;;;;;;0.00;0.00;;;17.00;77.80;;;;;;4905158;29;20491;-76
2023/08/20 05:03:25;;;;;;;0.10;0.10;;;17.00;78.00;;;;;;4905130;29;20491;-77
2023/08/20 05:05:51;;;;;;;0.10;0.10;;;17.00;78.30;;;;;;4905431;29;20168;-77
2023/08/20 05:08:17;;;;;;;0.10;0.10;;;17.00;78.40;;;;;;4888244;29;20060;-77
2023/08/20 05:10:43;;;;;;;0.00;0.00;;;17.00;78.30;;;;;;4905320;29;20116;-77
2023/08/20 05:13:08;;;;;;;0.10;0.10;;;17.00;78.20;;;;;;4888472;29;20020;-77
2023/08/20 05:15:34;;;;;;;0.10;0.10;;;17.00;78.40;;;;;;4904637;29;20032;-77
2023/08/20 05:18:00;;;;;;;0.00;0.00;;;17.00;78.40;;;;;;4905210;29;20024;-77
2023/08/20 05:20:25;;;;;;;0.05;0.05;;;17.00;78.50;;;;;;4905200;29;20040;-77
2023/08/20 05:22:51;;;;;;;0.10;0.10;;;17.00;78.40;;;;;;4904925;29;20028;-77
2023/08/20 05:25:17;;;;;;;0.05;0.05;;;17.10;78.10;;;;;;4905070;29;20028;-77
2023/08/20 05:27:42;;;;;;;0.00;0.00;;;17.10;77.90;;;;;;4905029;29;20028;-77
2023/08/20 05:30:08;;;;;;;0.00;0.00;;;17.00;78.20;;;;;;4888201;29;20028;-77
2023/08/20 05:32:34;;;;;;;0.00;0.00;;;16.90;78.40;;;;;;4904305;29;20037;-77
2023/08/20 05:34:59;;;;;;;0.20;0.00;;;16.80;78.80;;;;;;4904632;29;20388;-77
2023/08/20 05:37:25;;;;;;;0.10;0.10;;;16.80;78.90;;;;;;4904750;29;20033;-77
2023/08/20 05:39:51;;;;;;;0.00;0.00;;;16.80;78.70;;;;;;4904845;29;20432;-77
2023/08/20 05:42:16;;;;;;;0.10;0.10;;;16.80;79.10;;;;;;4887749;29;20025;-77
2023/08/20 05:44:42;;;;;;;0.10;0.10;;;16.80;78.90;;;;;;4904479;29;20088;-77
2023/08/20 05:47:08;;;;;;;0.10;0.10;;;16.80;79.20;;;;;;4887674;29;20037;-77
2023/08/20 05:49:33;;;;;;;0.05;0.05;;;16.90;79.20;;;;;;4904492;29;20480;-77
2023/08/20 05:51:59;;;;;;;0.00;0.00;;;16.90;79.20;;;;;;4904400;29;20029;-77
2023/08/20 05:54:25;;;;;;;0.10;0.10;;;16.90;79.20;;;;;;4904772;29;20029;-77
2023/08/20 05:56:50;;;;;;;0.00;0.00;;;16.90;79.50;;;;;;4904416;29;20025;-77
2023/08/20 05:59:16;;;;;;;0.00;0.00;;;16.80;80.00;;;;;;4904125;29;20025;-77
2023/08/20 06:01:43;;;;;;;0.10;0.10;;;16.80;80.00;;;;;;4904131;29;20091;-77
2023/08/20 06:04:09;;;;;;;0.00;0.00;;;16.90;79.90;;;;;;4902844;29;20053;-77
2023/08/20 06:06:35;;;;;;;0.10;0.10;;;16.90;79.70;;;;;;4904121;29;20036;-77
2023/08/20 06:09:00;;;;;;;0.10;0.10;;;16.90;80.30;;;;;;4904025;29;20040;-77
2023/08/20 06:11:26;;;;;;;0.10;0.10;;;16.90;80.20;;;;;;4904160;29;20476;-77
2023/08/20 06:13:52;;;;;;;0.10;0.10;;;16.90;80.30;;;;;;4904045;29;20020;-78
2023/08/20 06:16:17;;;;;;;0.03;0.03;;;17.00;80.10;;;;;;4886978;29;20097;-77
2023/08/20 06:18:43;;;;;;;0.10;0.10;;;17.10;80.20;;;;;;4904096;29;20032;-77
2023/08/20 06:21:08;;;;;;;0.00;0.00;;;17.10;80.00;;;;;;4904059;29;20052;-77
2023/08/20 06:23:34;;;;;;;0.20;0.10;;;17.20;79.80;;;;;;4886825;29;20036;-77
2023/08/20 06:26:00;;;;;;;0.00;0.00;;;17.20;80.10;;;;;;4885652;29;20068;-77
2023/08/20 06:28:25;;;;;;;0.10;0.10;;;17.20;80.00;;;;;;4903326;29;20108;-77
2023/08/20 06:30:51;;;;;;;0.10;0.10;;;17.20;80.10;;;;;;4903607;29;20057;-77
2023/08/20 06:33:16;;;;;;;0.05;0.05;;;17.30;80.30;;;;;;4903667;29;20032;-77
2023/08/20 06:35:42;;;;;;;0.10;0.10;;;17.30;80.20;;;;;;4886874;29;20464;-77
2023/08/20 06:38:08;;;;;;;0.00;0.00;;;17.30;80.30;;;;;;4903392;29;20052;-77
2023/08/20 06:40:33;;;;;;;0.08;0.08;;;17.40;80.20;;;;;;4886898;29;20069;-77
2023/08/20 06:42:59;;;;;;;0.00;0.00;;;17.40;80.20;;;;;;4903471;29;20020;-77
2023/08/20 06:45:25;;;;;;;0.00;0.00;;;17.50;80.40;;;;;;4886536;29;20032;-77
2023/08/20 06:47:57;;;;;;;0.05;0.05;;;17.40;80.70;;;;;;5093398;27;20397;-77
2023/08/20 06:50:23;;;;;;;0.00;0.00;;;17.50;80.70;;;;;;5093776;28;20032;-78
2023/08/20 06:52:49;;;;;;;0.10;0.10;;;17.50;80.60;;;;;;5094287;28;20029;-78
2023/08/20 06:55:14;;;;;;;0.00;0.00;;;17.60;80.30;;;;;;5095416;28;20035;-78
2023/08/20 06:57:40;;;;;;;0.10;0.10;;;17.60;80.60;;;;;;5095405;28;20032;-78
2023/08/20 07:00:06;;;;;;;0.10;0.10;;;17.60;80.50;;;;;;5093570;28;20031;-78
2023/08/20 07:02:32;;;;;;;0.10;0.10;;;17.60;80.60;;;;;;5094154;28;20024;-78
2023/08/20 07:04:57;;;;;;;0.10;0.10;;;17.70;80.60;;;;;;5079538;28;20024;-78
2023/08/20 07:07:23;;;;;;;0.10;0.10;;;17.70;80.40;;;;;;5074732;28;20546;-78
2023/08/20 07:09:49;;;;;;;0.10;0.10;;;17.70;80.40;;;;;;5074924;28;20039;-77
2023/08/20 07:12:14;;;;;;;0.10;0.10;;;17.80;80.30;;;;;;5075205;28;20017;-78
2023/08/20 07:14:40;;;;;;;0.10;0.10;;;17.90;80.00;;;;;;5074681;28;20025;-78
2023/08/20 07:17:05;;;;;;;0.10;0.10;;;17.90;79.90;;;;;;5074909;28;20376;-78
2023/08/20 07:19:31;;;;;;;0.10;0.10;;;18.00;79.60;;;;;;5074592;28;20036;-78
2023/08/20 07:21:56;;;;;;;0.10;0.10;;;18.10;79.60;;;;;;5074518;28;20059;-78
2023/08/20 07:24:25;;;;;;;0.10;0.10;;;18.20;79.30;;;;;;5074363;28;20028;-78
2023/08/20 07:27:00;;;;;;;0.00;0.00;;;18.20;79.40;;;;;;5074596;28;20039;-78
2023/08/20 07:29:26;;;;;;;0.10;0.10;;;18.30;79.10;;;;;;5074450;28;20497;-78
2023/08/20 07:31:52;;;;;;;0.10;0.10;;;18.40;79.20;;;;;;5072922;28;20033;-78
2023/08/20 07:34:18;;;;;;;0.20;0.10;;;18.40;78.90;;;;;;5073870;28;20031;-78
2023/08/20 07:36:44;;;;;;;0.10;0.10;;;18.50;79.00;;;;;;5074456;28;20059;-78
2023/08/20 07:39:09;;;;;;;0.03;0.03;;;18.60;78.70;;;;;;5074144;28;20387;-78
2023/08/20 07:41:35;;;;;;;0.10;0.10;;;18.90;78.20;;;;;;5074436;28;20029;-78
2023/08/20 07:44:01;;;;;;;0.10;0.10;;;19.00;78.00;;;;;;5074044;28;20025;-78
2023/08/20 07:46:26;;;;;;;0.20;0.20;;;19.10;77.50;;;;;;5072620;28;20044;-78
2023/08/20 07:48:52;;;;;;;0.10;0.10;;;19.20;77.50;;;;;;5074020;28;20025;-78
2023/08/20 07:51:17;;;;;;;0.10;0.10;;;19.70;77.00;;;;;;5074222;28;20056;-78
2023/08/20 07:53:43;;;;;;;0.10;0.10;;;20.50;75.30;;;;;;5074035;28;20020;-79
2023/08/20 07:56:09;;;;;;;0.10;0.10;;;22.00;71.90;;;;;;5074034;28;20029;-79
2023/08/20 07:58:34;;;;;;;0.05;0.05;;;22.90;68.90;;;;;;5064681;28;20079;-78
2023/08/20 08:01:00;;;;;;;0.10;0.10;;;23.60;65.80;;;;;;5070897;28;20051;-78
2023/08/20 08:03:26;;;;;;;0.10;0.10;;;24.40;63.70;;;;;;5092711;28;20029;-78
2023/08/20 08:05:53;;;;;;;0.10;0.10;;;25.30;61.10;;;;;;5059144;28;20443;-79
2023/08/20 08:08:20;;;;;;;0.10;0.10;;;26.00;58.30;;;;;;5059038;28;20025;-79
2023/08/20 08:10:46;;;;;;;0.10;0.10;;;26.90;55.90;;;;;;5059136;28;20064;-79
2023/08/20 08:13:13;;;;;;;0.20;0.20;;;28.30;53.50;;;;;;5060510;28;20017;-79
2023/08/20 08:15:39;;;;;;;0.40;0.40;;;29.60;50.10;;;;;;5058964;28;20025;-79
2023/08/20 08:18:05;;;;;;;0.40;0.40;;;30.60;47.10;;;;;;5058859;28;20113;-80
2023/08/20 08:20:30;;;;;;;0.40;0.40;;;31.30;46.00;;;;;;5060318;28;20104;-80
2023/08/20 08:22:56;;;;;;;0.40;0.40;;;31.70;44.80;;;;;;5060098;28;20102;-80
2023/08/20 08:25:21;;;;;;;0.30;0.30;;;31.80;44.80;;;;;;5060150;28;20028;-80
2023/08/20 08:27:48;;;;;;;0.40;0.40;;;31.30;44.00;;;;;;5060102;28;20029;-79
2023/08/20 08:30:14;;;;;;;0.20;0.20;;;30.10;47.30;;;;;;5060064;28;20043;-79
2023/08/20 08:32:40;;;;;;;0.10;0.10;;;29.10;49.10;;;;;;5059503;28;20017;-79
2023/08/20 08:35:06;;;;;;;0.10;0.10;;;28.50;50.80;;;;;;5056251;28;20028;-79
2023/08/20 08:37:32;;;;;;;0.00;0.00;;;28.30;51.20;;;;;;5059841;28;20028;-79
2023/08/20 08:39:57;;;;;;;0.00;0.00;;;28.50;51.00;;;;;;5060020;28;20076;-79
2023/08/20 08:42:24;;;;;;;0.10;0.10;;;28.90;50.40;;;;;;5058351;28;20037;-79
2023/08/20 08:44:50;;;;;;;0.30;0.30;;;29.70;47.80;;;;;;5058197;28;20025;-79
2023/08/20 08:47:18;;;;;;;0.50;0.50;;;30.60;46.50;;;;;;5059489;28;20048;-80
2023/08/20 08:49:46;;;;;;;0.50;0.50;;;31.60;44.70;;;;;;5059698;28;20025;-80
2023/08/20 08:52:12;;;;;;;0.50;0.50;;;32.40;43.80;;;;;;5059921;28;20031;-80
2023/08/20 08:54:38;;;;;;;0.40;0.40;;;32.70;42.20;;;;;;5059695;28;20472;-79
2023/08/20 08:57:05;;;;;;;0.10;0.10;;;32.80;41.30;;;;;;5059517;28;20029;-79
2023/08/20 08:59:30;;;;;;;0.00;0.00;;;32.60;42.30;;;;;;5058800;28;20029;-79
2023/08/20 09:01:59;;;;;;;0.05;0.05;;;32.30;42.00;;;;;;5079491;28;20021;-80
2023/08/20 09:04:25;;;;;;;0.20;0.20;;;31.80;43.80;;;;;;5068668;28;20021;-79
2023/08/20 09:06:52;;;;;;;0.20;0.20;;;31.20;44.30;;;;;;5057784;28;20037;-79
2023/08/20 09:09:20;;;;;;;0.20;0.20;;;30.90;43.90;;;;;;5058441;28;20402;-79
2023/08/20 09:11:49;;;;;;;0.10;0.10;;;30.80;44.60;;;;;;5059048;28;20029;-79
2023/08/20 09:14:29;;;;;;;0.08;0.08;;;30.80;45.30;;;;;;5059428;28;20024;-79
2023/08/20 09:16:59;;;;;;;0.00;0.00;;;30.90;45.40;;;;;;5057779;28;20083;-79
2023/08/20 09:19:30;;;;;;;0.00;0.00;;;31.30;43.40;;;;;;5057741;28;20047;-79
2023/08/20 09:21:55;;;;;;;0.10;0.10;;;31.80;43.30;;;;;;5057500;28;20036;-79
2023/08/20 09:24:44;;;;;;;0.40;0.40;;;32.30;42.00;;;;;;5057639;28;20033;-79
2023/08/20 09:27:11;;;;;;;0.50;0.50;;;32.70;39.60;;;;;;5058996;28;20033;-79
2023/08/20 09:29:48;;;;;;;0.50;0.50;;;33.30;39.70;;;;;;5057664;28;20025;-79
2023/08/20 09:32:15;;;;;;;0.60;0.60;;;33.00;39.20;;;;;;5056996;28;20017;-79
2023/08/20 09:34:41;;;;;;;0.40;0.40;;;33.50;39.10;;;;;;5058531;28;20020;-79
2023/08/20 09:37:12;;;;;;;0.10;0.10;;;33.50;37.50;;;;;;5057387;28;20057;-79
2023/08/20 09:39:38;;;;;;;0.00;0.00;;;33.30;37.90;;;;;;5058843;28;20025;-79
2023/08/20 09:42:07;;;;;;;0.00;0.00;;;32.30;41.00;;;;;;5058756;28;20035;-79
2023/08/20 09:44:35;;;;;;;0.10;0.10;;;31.30;42.70;;;;;;5058495;28;20024;-79
2023/08/20 09:47:02;;;;;;;0.20;0.20;;;31.20;42.90;;;;;;5056947;28;20139;-79
2023/08/20 09:49:33;;;;;;;0.00;0.00;;;31.10;43.30;;;;;;5058894;28;20103;-79
2023/08/20 09:52:01;;;;;;;0.00;0.00;;;31.40;42.40;;;;;;5058726;28;20387;-79
2023/08/20 09:54:39;;;;;;;0.00;0.00;;;31.60;41.40;;;;;;5058449;28;20024;-79
2023/08/20 09:57:11;;;;;;;0.00;0.00;;;31.60;41.50;;;;;;5057082;28;20032;-79
2023/08/20 09:59:38;;;;;;;0.00;0.00;;;31.40;41.50;;;;;;5058587;28;20021;-79
2023/08/20 10:02:04;;;;;;;0.00;0.00;;;31.30;40.60;;;;;;5077569;28;20494;-79
2023/08/20 10:04:30;;;;;;;0.00;0.00;;;31.30;41.20;;;;;;5058348;28;20053;-79
2023/08/20 10:06:58;;;;;;;0.05;0.05;;;31.10;42.60;;;;;;5057891;28;20036;-79
2023/08/20 10:09:24;;;;;;;0.08;0.08;;;30.80;43.90;;;;;;5058502;28;20021;-79
2023/08/20 10:11:49;;;;;;;0.00;0.00;;;30.20;42.90;;;;;;5058122;28;20057;-78
2023/08/20 10:14:16;;;;;;;0.10;0.10;;;30.00;44.70;;;;;;5058101;28;20021;-79
2023/08/20 10:16:42;;;;;;;0.00;0.00;;;29.40;43.70;;;;;;5061534;28;20023;-79
2023/08/20 10:19:07;;;;;;;0.00;0.00;;;28.90;47.60;;;;;;5069222;28;20020;-79
2023/08/20 10:21:33;;;;;;;0.30;0.30;;;28.40;47.70;;;;;;5076393;28;20029;-79
2023/08/20 10:24:05;;;;;;;0.50;0.50;;;28.30;49.50;;;;;;5076109;28;20078;-78
2023/08/20 10:26:34;;;;;;;0.10;0.10;;;28.20;49.10;;;;;;5055934;28;20032;-78
2023/08/20 10:29:38;;;;;;;0.10;0.10;;;28.10;49.90;;;;;;5057869;28;20107;-79
2023/08/20 10:32:11;;;;;;;0.00;0.00;;;28.30;47.50;;;;;;5056641;28;20045;-79
2023/08/20 10:34:38;;;;;;;0.00;0.00;;;28.10;48.40;;;;;;5056415;28;20029;-79
2023/08/20 10:37:28;;;;;;;0.00;0.00;;;28.00;49.50;;;;;;5057744;28;20032;-79
2023/08/20 10:39:55;;;;;;;0.08;0.08;;;27.90;50.90;;;;;;5057791;28;20063;-79
2023/08/20 10:42:23;;;;;;;0.00;0.00;;;27.80;50.10;;;;;;5057925;28;20017;-78
2023/08/20 10:45:00;;;;;;;0.00;0.00;;;27.80;49.90;;;;;;5056222;28;20025;-79
2023/08/20 10:47:41;;;;;;;0.05;0.05;;;27.60;50.10;;;;;;5057743;28;20207;-78
2023/08/20 10:50:10;;;;;;;0.00;0.00;;;27.50;50.00;;;;;;5057728;28;20028;-79
2023/08/20 10:52:40;;;;;;;0.10;0.10;;;27.30;50.20;;;;;;5057548;28;20017;-79
2023/08/20 10:55:09;;;;;;;0.08;0.08;;;27.30;51.30;;;;;;5057715;28;20104;-79
2023/08/20 10:57:35;;;;;;;0.00;0.00;;;27.20;51.40;;;;;;5057818;28;20028;-79
2023/08/20 11:00:09;;;;;;;0.00;0.00;;;27.20;49.50;;;;;;5062661;28;20453;-79
2023/08/20 11:02:35;;;;;;;0.05;0.05;;;27.10;52.10;;;;;;5076983;28;20028;-79
2023/08/20 11:05:04;;;;;;;0.10;0.10;;;27.10;49.90;;;;;;5094113;28;20048;-79
2023/08/20 11:07:31;;;;;;;0.00;0.00;;;27.00;49.40;;;;;;5057777;28;20051;-78
2023/08/20 11:09:57;;;;;;;0.00;0.00;;;27.10;52.40;;;;;;5056315;28;20116;-79
2023/08/20 11:12:23;;;;;;;0.05;0.05;;;27.00;50.10;;;;;;5057736;28;20075;-78
2023/08/20 11:14:49;;;;;;;0.10;0.10;;;26.90;51.20;;;;;;5057494;28;20033;-78
2023/08/20 11:17:15;;;;;;;0.10;0.10;;;27.00;52.70;;;;;;5057655;28;20028;-79
2023/08/20 11:19:40;;;;;;;0.00;0.00;;;27.10;52.40;;;;;;5057530;28;20369;-78
2023/08/20 11:22:06;;;;;;;0.00;0.00;;;27.20;51.80;;;;;;5057666;28;20082;-78
2023/08/20 11:24:32;;;;;;;0.10;0.10;;;27.20;51.40;;;;;;5057340;28;20383;-78
2023/08/20 11:26:58;;;;;;;0.00;0.00;;;27.20;52.00;;;;;;5057303;28;20028;-79
2023/08/20 11:29:26;;;;;;;0.00;0.00;;;27.20;51.20;;;;;;5055963;28;20025;-78
2023/08/20 11:31:52;;;;;;;0.00;0.00;;;27.20;51.70;;;;;;5055384;28;20039;-79
2023/08/20 11:34:18;;;;;;;0.10;0.10;;;27.30;50.50;;;;;;5060193;28;20021;-79
2023/08/20 11:36:44;;;;;;;0.00;0.00;;;27.30;48.40;;;;;;5060914;28;20490;-78
2023/08/20 11:39:10;;;;;;;0.00;0.00;;;27.30;50.80;;;;;;5059635;28;20051;-78
2023/08/20 11:41:37;;;;;;;0.00;0.00;;;27.20;50.60;;;;;;5061063;28;20506;-79
2023/08/20 11:44:05;;;;;;;0.00;0.00;;;27.20;50.70;;;;;;5060699;28;20029;-78
2023/08/20 11:46:31;;;;;;;0.00;0.00;;;27.10;48.90;;;;;;5060637;28;20069;-79
2023/08/20 11:49:05;;;;;;;0.10;0.10;;;27.20;50.60;;;;;;5061080;28;20036;-79
2023/08/20 11:51:40;;;;;;;0.00;0.00;;;27.10;48.70;;;;;;5059353;28;20036;-79
2023/08/20 11:54:08;;;;;;;0.05;0.05;;;27.20;50.00;;;;;;5060733;28;20028;-79
2023/08/20 11:56:34;;;;;;;0.00;0.00;;;27.30;49.20;;;;;;5060188;28;20029;-78
2023/08/20 11:59:01;;;;;;;0.10;0.10;;;27.30;50.10;;;;;;5059319;28;20036;-79
2023/08/20 12:01:32;;;;;;;0.00;0.00;;;27.20;48.40;;;;;;5060476;28;20025;-79
2023/08/20 12:04:07;;;;;;;0.00;0.00;;;27.30;49.50;;;;;;5060455;28;20032;-79
2023/08/20 12:06:34;;;;;;;0.10;0.10;;;27.20;47.60;;;;;;5060211;28;20021;-79
2023/08/20 12:09:01;;;;;;;0.00;0.00;;;27.30;48.10;;;;;;5059162;28;20025;-79
2023/08/20 12:11:30;;;;;;;0.10;0.10;;;27.30;48.80;;;;;;5059066;28;20025;-79
2023/08/20 12:13:57;;;;;;;0.10;0.10;;;27.30;49.40;;;;;;5060268;28;20078;-79
2023/08/20 12:16:26;;;;;;;0.10;0.10;;;27.30;48.00;;;;;;5059004;28;20025;-78
2023/08/20 12:18:55;;;;;;;0.00;0.00;;;27.30;48.60;;;;;;5060450;28;20061;-79
2023/08/20 12:21:21;;;;;;;0.10;0.10;;;27.30;49.40;;;;;;5059469;28;20025;-78
2023/08/20 12:23:46;;;;;;;0.10;0.10;;;27.30;48.60;;;;;;5060328;28;20044;-79
2023/08/20 12:26:12;;;;;;;0.08;0.08;;;27.30;48.40;;;;;;5060104;28;20017;-78
2023/08/20 12:28:38;;;;;;;0.10;0.10;;;27.30;48.10;;;;;;5060263;28;20387;-79
2023/08/20 12:31:03;;;;;;;0.00;0.00;;;27.30;46.90;;;;;;5060377;28;20017;-79
2023/08/20 12:33:29;;;;;;;0.00;0.00;;;27.40;46.00;;;;;;5060126;28;20021;-79
2023/08/20 12:35:55;;;;;;;0.00;0.00;;;27.40;45.80;;;;;;5059949;28;20060;-79
2023/08/20 12:38:21;;;;;;;0.00;0.00;;;27.40;45.70;;;;;;5060120;28;20078;-78
2023/08/20 12:40:47;;;;;;;0.00;0.00;;;27.50;47.70;;;;;;5059660;28;20025;-78
2023/08/20 12:43:13;;;;;;;0.00;0.00;;;27.50;47.10;;;;;;5059533;28;20029;-78
2023/08/20 12:45:38;;;;;;;0.00;0.00;;;27.50;45.90;;;;;;5057774;28;20021;-78
2023/08/20 12:48:05;;;;;;;0.10;0.10;;;27.60;46.10;;;;;;5058287;28;20029;-78
2023/08/20 12:50:30;;;;;;;0.08;0.08;;;27.60;47.70;;;;;;5059701;28;20124;-78
2023/08/20 12:52:56;;;;;;;0.00;0.00;;;27.70;48.60;;;;;;5059561;28;20048;-79
2023/08/20 12:55:23;;;;;;;0.00;0.00;;;27.70;46.00;;;;;;5059722;28;20021;-78
2023/08/20 12:57:57;;;;;;;0.10;0.10;;;27.60;45.40;;;;;;5058250;28;20033;-78
2023/08/20 13:00:27;;;;;;;0.00;0.00;;;27.60;44.30;;;;;;5067508;28;20028;-78
2023/08/20 13:02:56;;;;;;;0.00;0.00;;;27.50;45.00;;;;;;5078088;28;20025;-78
2023/08/20 13:05:24;;;;;;;0.00;0.00;;;27.60;43.70;;;;;;5060693;28;20143;-78
2023/08/20 13:07:50;;;;;;;0.10;0.10;;;27.70;44.70;;;;;;5057993;28;20597;-78
2023/08/20 13:10:16;;;;;;;0.10;0.10;;;27.70;44.30;;;;;;5057894;28;20426;-79
2023/08/20 13:12:45;;;;;;;0.10;0.10;;;27.70;44.60;;;;;;5059194;28;20021;-78
2023/08/20 13:15:10;;;;;;;0.10;0.10;;;27.80;45.40;;;;;;5059207;28;20040;-78
2023/08/20 13:17:37;;;;;;;0.10;0.10;;;27.80;47.60;;;;;;5059235;28;20029;-78
2023/08/20 13:20:05;;;;;;;0.10;0.10;;;27.90;47.10;;;;;;5059121;28;20075;-78
2023/08/20 13:22:30;;;;;;;0.00;0.00;;;27.90;44.50;;;;;;5058939;28;20039;-78
2023/08/20 13:24:56;;;;;;;0.03;0.03;;;27.80;43.10;;;;;;5059362;28;20025;-78
2023/08/20 13:27:21;;;;;;;0.00;0.00;;;27.80;43.10;;;;;;5058610;28;20025;-78
2023/08/20 13:29:47;;;;;;;0.10;0.10;;;27.80;44.60;;;;;;5058585;28;20021;-78
2023/08/20 13:32:13;;;;;;;0.10;0.10;;;27.90;46.20;;;;;;5058655;28;20036;-78
2023/08/20 13:34:38;;;;;;;0.10;0.10;;;27.80;46.60;;;;;;5058650;28;20479;-79
2023/08/20 13:37:04;;;;;;;0.10;0.10;;;27.80;46.20;;;;;;5058460;28;20029;-78
2023/08/20 13:39:30;;;;;;;0.10;0.10;;;27.80;44.60;;;;;;5058877;28;20364;-78
2023/08/20 13:41:55;;;;;;;0.10;0.10;;;27.80;44.70;;;;;;5058727;28;20033;-78
2023/08/20 13:44:21;;;;;;;0.00;0.00;;;27.80;43.60;;;;;;5057039;28;20503;-78
2023/08/20 13:46:47;;;;;;;0.00;0.00;;;27.80;45.40;;;;;;5058346;28;20102;-78
2023/08/20 13:49:12;;;;;;;0.10;0.10;;;27.80;42.80;;;;;;5058612;28;20021;-78
2023/08/20 13:51:38;;;;;;;0.00;0.00;;;27.80;43.50;;;;;;5056875;28;20029;-78
2023/08/20 13:54:04;;;;;;;0.10;0.10;;;27.80;44.20;;;;;;5058351;28;20376;-78
2023/08/20 13:56:30;;;;;;;0.00;0.00;;;27.80;43.40;;;;;;5057847;28;20213;-78
2023/08/20 13:58:55;;;;;;;0.00;0.00;;;27.80;43.20;;;;;;5058386;28;20021;-78
2023/08/20 14:01:21;;;;;;;0.00;0.00;;;27.90;44.40;;;;;;5090110;28;20091;-78
2023/08/20 14:03:46;;;;;;;0.00;0.00;;;27.90;42.10;;;;;;5058340;28;20108;-78
2023/08/20 14:06:12;;;;;;;0.00;0.00;;;28.00;42.50;;;;;;5056939;28;20029;-78
2023/08/20 14:08:38;;;;;;;0.00;0.00;;;28.00;42.90;;;;;;5058172;28;20048;-78
2023/08/20 14:11:03;;;;;;;0.00;0.00;;;28.00;44.10;;;;;;5057965;28;20029;-78
2023/08/20 14:13:29;;;;;;;0.00;0.00;;;28.10;44.40;;;;;;5058125;28;20017;-78
2023/08/20 14:15:54;;;;;;;0.00;0.00;;;28.00;43.20;;;;;;5058035;28;20384;-78
2023/08/20 14:18:20;;;;;;;0.10;0.10;;;28.00;43.60;;;;;;5058121;28;20110;-78
2023/08/20 14:20:46;;;;;;;0.00;0.00;;;28.00;43.50;;;;;;5058130;28;20095;-78
2023/08/20 14:23:12;;;;;;;0.00;0.00;;;28.00;42.30;;;;;;5058132;28;20025;-78
2023/08/20 14:25:40;;;;;;;0.00;0.00;;;28.00;42.90;;;;;;5057956;28;20021;-78
2023/08/20 14:28:06;;;;;;;0.00;0.00;;;28.00;42.80;;;;;;5058240;28;20532;-78
2023/08/20 14:30:35;;;;;;;0.10;0.10;;;28.00;43.80;;;;;;5057120;28;20021;-78
2023/08/20 14:33:01;;;;;;;0.00;0.00;;;28.10;45.00;;;;;;5057860;28;20021;-78
2023/08/20 14:35:26;;;;;;;0.10;0.10;;;28.10;44.30;;;;;;5057582;28;20189;-78
2023/08/20 14:37:54;;;;;;;0.00;0.00;;;28.10;43.20;;;;;;5057774;28;20064;-78
2023/08/20 14:40:19;;;;;;;0.00;0.00;;;28.10;43.90;;;;;;5057860;28;20025;-78
2023/08/20 14:42:45;;;;;;;0.00;0.00;;;28.20;44.00;;;;;;5057834;28;20039;-78
2023/08/20 14:45:11;;;;;;;0.00;0.00;;;28.00;44.50;;;;;;5056316;28;20120;-78
2023/08/20 14:47:36;;;;;;;0.00;0.00;;;27.90;44.40;;;;;;5057538;28;20034;-78
2023/08/20 14:50:03;;;;;;;0.08;0.08;;;27.90;44.00;;;;;;5057599;28;20036;-78
2023/08/20 14:52:28;;;;;;;0.00;0.00;;;27.90;44.10;;;;;;5056098;28;20021;-78
2023/08/20 14:54:54;;;;;;;0.10;0.10;;;27.90;43.50;;;;;;5056298;28;20036;-78
2023/08/20 14:57:20;;;;;;;0.00;0.00;;;27.90;44.80;;;;;;5057700;28;20029;-78
2023/08/20 14:59:45;;;;;;;0.00;0.00;;;27.90;42.70;;;;;;5060419;28;20471;-78
2023/08/20 15:02:11;;;;;;;0.00;0.00;;;27.90;42.80;;;;;;5077817;28;20039;-78
2023/08/20 15:04:36;;;;;;;0.00;0.00;;;27.90;42.70;;;;;;5064923;28;20032;-78
2023/08/20 15:07:03;;;;;;;0.00;0.00;;;27.80;42.40;;;;;;5057280;28;20108;-78
2023/08/20 15:09:29;;;;;;;0.00;0.00;;;27.90;43.50;;;;;;5061035;28;20017;-78
2023/08/20 15:11:55;;;;;;;0.00;0.00;;;27.90;41.90;;;;;;5061536;28;20527;-79
2023/08/20 15:14:22;;;;;;;0.00;0.00;;;27.90;42.50;;;;;;5061492;28;20079;-78
2023/08/20 15:16:48;;;;;;;0.10;0.10;;;27.90;44.00;;;;;;5061587;28;20071;-78
2023/08/20 15:19:13;;;;;;;0.00;0.00;;;27.90;42.80;;;;;;5061217;28;20029;-78
2023/08/20 15:21:39;;;;;;;0.08;0.08;;;27.80;42.60;;;;;;5061095;28;20036;-78
2023/08/20 15:24:05;;;;;;;0.00;0.00;;;27.80;43.10;;;;;;5059740;28;20033;-78
2023/08/20 15:26:30;;;;;;;0.00;0.00;;;27.80;43.80;;;;;;5060773;28;20047;-78
2023/08/20 15:28:56;;;;;;;0.08;0.08;;;27.80;43.00;;;;;;5061242;28;20028;-78
2023/08/20 15:31:21;;;;;;;0.00;0.00;;;27.80;42.90;;;;;;5061062;28;20487;-78
2023/08/20 15:33:47;;;;;;;0.00;0.00;;;27.80;42.10;;;;;;5061156;28;20562;-78
2023/08/20 15:36:13;;;;;;;0.10;0.10;;;27.80;43.30;;;;;;5060969;28;20028;-78
2023/08/20 15:38:38;;;;;;;0.00;0.00;;;27.80;42.80;;;;;;5060883;28;20033;-78
2023/08/20 15:41:04;;;;;;;0.05;0.05;;;27.80;42.60;;;;;;5060920;28;20029;-78
2023/08/20 15:43:30;;;;;;;0.10;0.10;;;27.80;43.40;;;;;;5059326;28;20036;-78
2023/08/20 15:45:55;;;;;;;0.00;0.00;;;27.80;43.40;;;;;;5060661;28;20052;-78
2023/08/20 15:48:21;;;;;;;0.00;0.00;;;27.80;43.60;;;;;;5060727;28;20017;-78
2023/08/20 15:50:46;;;;;;;0.00;0.00;;;27.80;42.90;;;;;;5059036;28;20029;-78
2023/08/20 15:53:12;;;;;;;0.03;0.03;;;27.80;41.70;;;;;;5060730;28;20430;-78
2023/08/20 15:55:38;;;;;;;0.10;0.10;;;27.80;42.60;;;;;;5092902;28;20021;-78
2023/08/20 15:58:04;;;;;;;0.00;0.00;;;27.80;43.30;;;;;;5060622;28;20052;-78
2023/08/20 16:00:29;;;;;;;0.00;0.00;;;27.80;42.90;;;;;;5092485;28;20021;-78
2023/08/20 16:02:55;;;;;;;0.00;0.00;;;27.70;42.80;;;;;;5066570;28;20499;-78
2023/08/20 16:05:21;;;;;;;0.00;0.00;;;27.70;42.80;;;;;;5059003;28;20027;-78
2023/08/20 16:07:47;;;;;;;0.00;0.00;;;27.70;42.40;;;;;;5060144;28;20120;-78
2023/08/20 16:10:15;;;;;;;0.08;0.08;;;27.60;42.20;;;;;;5058984;28;20029;-78
2023/08/20 16:12:40;;;;;;;0.00;0.00;;;27.60;42.30;;;;;;5059036;28;20029;-78
2023/08/20 16:15:07;;;;;;;0.00;0.00;;;27.60;42.50;;;;;;5060539;28;20104;-78
2023/08/20 16:17:32;;;;;;;0.10;0.10;;;27.60;42.50;;;;;;5060153;28;20356;-78
2023/08/20 16:20:02;;;;;;;0.10;0.10;;;27.60;43.10;;;;;;5059811;28;20094;-78
2023/08/20 16:22:30;;;;;;;0.00;0.00;;;27.50;42.50;;;;;;5060096;28;20055;-78
2023/08/20 16:24:56;;;;;;;0.00;0.00;;;27.50;42.60;;;;;;5060158;28;20024;-78
2023/08/20 16:27:22;;;;;;;0.00;0.00;;;27.50;43.10;;;;;;5058202;28;20092;-78
2023/08/20 16:29:49;;;;;;;0.00;0.00;;;27.60;43.40;;;;;;5060045;28;20021;-78
2023/08/20 16:32:15;;;;;;;0.10;0.10;;;27.50;43.40;;;;;;5060044;28;20175;-78
2023/08/20 16:34:41;;;;;;;0.00;0.00;;;27.50;43.00;;;;;;5059951;28;20036;-78
2023/08/20 16:37:07;;;;;;;0.00;0.00;;;27.40;43.40;;;;;;5060103;28;20040;-78
2023/08/20 16:39:33;;;;;;;0.00;0.00;;;27.30;43.00;;;;;;5059974;28;20021;-78
2023/08/20 16:41:58;;;;;;;0.00;0.00;;;27.30;42.90;;;;;;5060038;28;20039;-78
2023/08/20 16:44:24;;;;;;;0.10;0.10;;;27.30;43.60;;;;;;5059484;28;20557;-78
2023/08/20 16:46:50;;;;;;;0.00;0.00;;;27.30;43.60;;;;;;5059506;28;20049;-78
2023/08/20 16:49:15;;;;;;;0.00;0.00;;;27.30;43.70;;;;;;5059662;28;20100;-78
2023/08/20 16:51:41;;;;;;;0.00;0.00;;;27.30;44.50;;;;;;5059676;28;20017;-78
2023/08/20 16:54:07;;;;;;;0.00;0.00;;;27.30;44.20;;;;;;5058367;28;20499;-78
2023/08/20 16:56:33;;;;;;;0.00;0.00;;;27.20;43.70;;;;;;5058127;28;20036;-78
2023/08/20 16:58:58;;;;;;;0.00;0.00;;;27.20;43.60;;;;;;5059582;28;20418;-80
2023/08/20 17:01:24;;;;;;;0.00;0.00;;;27.10;43.50;;;;;;5075993;28;20033;-78
2023/08/20 17:03:50;;;;;;;0.00;0.00;;;27.10;43.00;;;;;;5072176;28;20025;-79
2023/08/20 17:06:17;;;;;;;0.00;0.00;;;27.00;43.10;;;;;;5059234;28;20055;-79
2023/08/20 17:08:42;;;;;;;0.00;0.00;;;27.00;43.60;;;;;;5059411;28;20100;-79
2023/08/20 17:11:10;;;;;;;0.00;0.00;;;27.00;42.70;;;;;;5059479;28;20024;-78
2023/08/20 17:13:36;;;;;;;0.00;0.00;;;26.90;42.10;;;;;;5059259;28;20021;-78
2023/08/20 17:16:02;;;;;;;0.00;0.00;;;26.90;43.20;;;;;;5059151;28;20025;-79